Time,TemperatureF,DewpointF,PressureIn,WindDirection,WindDirectionDegrees,WindSpeedMPH,WindSpeedGustMPH,Humidity,HourlyPrecipIn,Conditions,Clouds,dailyrainin,SoftwareType,DateUTC
2013-03-25 00:12:00,39.0,30.0,29.76,East,100,4.0,7.0,70,-99.99,,,-99.99,,2013-03-25 04:12:00,
2013-03-25 00:22:00,39.0,30.0,29.76,East,100,4.0,7.0,70,-99.99,,,-99.99,,2013-03-25 04:22:00,
2013-03-25 00:32:00,39.0,30.0,29.76,East,100,4.0,7.0,70,-99.99,,,-99.99,,2013-03-25 04:32:00,
2013-03-25 00:42:00,39.0,30.0,29.76,East,100,4.0,7.0,70,-99.99,,,-99.99,,2013-03-25 04:42:00,
2013-03-25 00:50:00,38.0,30.0,29.74,North,0,0.0,0.0,71,-99.99,,,-99.99,,2013-03-25 04:50:00,
2013-03-25 01:11:00,38.0,30.0,29.74,North,0,0.0,0.0,71,-99.99,,,-99.99,,2013-03-25 05:11:00,
2013-03-25 01:21:00,38.0,30.0,29.74,North,0,0.0,0.0,71,-99.99,,,-99.99,,2013-03-25 05:21:00,
2013-03-25 01:31:00,38.0,30.0,29.74,North,0,0.0,0.0,71,-99.99,,,-99.99,,2013-03-25 05:31:00,
2013-03-25 01:41:00,38.0,30.0,29.74,North,0,0.0,0.0,71,-99.99,,,-99.99,,2013-03-25 05:41:00,
2013-03-25 01:50:00,38.0,31.0,29.73,North,360,4.0,4.0,74,-99.99,,,-99.99,,2013-03-25 05:50:00,
2013-03-25 02:11:00,38.0,31.0,29.73,North,360,4.0,4.0,74,-99.99,,,-99.99,,2013-03-25 06:11:00,
2013-03-25 02:21:00,38.0,31.0,29.73,North,360,4.0,4.0,74,-99.99,,,-99.99,,2013-03-25 06:21:00,
2013-03-25 02:32:00,38.0,31.0,29.73,North,360,4.0,4.0,74,-99.99,,,-99.99,,2013-03-25 06:32:00,
2013-03-25 02:41:00,38.0,31.0,29.73,North,360,4.0,4.0,74,-99.99,,,-99.99,,2013-03-25 06:41:00,
2013-03-25 02:50:00,38.0,33.0,29.73,North,350,7.0,9.0,83,-99.99,,,-99.99,,2013-03-25 06:50:00,
2013-03-25 03:11:00,38.0,33.0,29.73,North,350,7.0,9.0,83,-99.99,,,-99.99,,2013-03-25 07:11:00,
2013-03-25 03:21:00,38.0,33.0,29.73,North,350,7.0,9.0,83,-99.99,,,-99.99,,2013-03-25 07:21:00,
2013-03-25 03:42:00,38.0,33.0,29.73,North,350,7.0,9.0,83,-99.99,,,-99.99,,2013-03-25 07:42:00,
2013-03-25 03:50:00,38.0,32.0,29.71,North,10,11.0,11.0,80,-99.99,,,-99.99,,2013-03-25 07:50:00,
2013-03-25 04:11:00,38.0,32.0,29.71,North,10,11.0,11.0,80,-99.99,,,-99.99,,2013-03-25 08:11:00,
2013-03-25 04:22:00,38.0,32.0,29.71,North,10,11.0,11.0,80,-99.99,,,-99.99,,2013-03-25 08:22:00,
2013-03-25 04:31:00,38.0,32.0,29.71,North,10,11.0,11.0,80,-99.99,,,-99.99,,2013-03-25 08:31:00,
2013-03-25 04:42:00,38.0,32.0,29.71,North,10,11.0,11.0,80,-99.99,,,-99.99,,2013-03-25 08:42:00,
2013-03-25 04:50:00,38.0,33.0,29.69,NNE,20,11.0,13.0,82,-99.99,,,-99.99,,2013-03-25 08:50:00,
2013-03-25 05:11:00,38.0,33.0,29.69,NNE,20,11.0,13.0,82,-99.99,,,-99.99,,2013-03-25 09:11:00,
2013-03-25 05:21:00,38.0,33.0,29.69,NNE,20,11.0,13.0,82,-99.99,,,-99.99,,2013-03-25 09:21:00,
2013-03-25 05:32:00,38.0,33.0,29.69,NNE,20,11.0,13.0,82,-99.99,,,-99.99,,2013-03-25 09:32:00,
2013-03-25 05:42:00,38.0,33.0,29.69,NNE,20,11.0,13.0,82,-99.99,,,-99.99,,2013-03-25 09:42:00,
2013-03-25 05:50:00,38.0,33.0,29.67,NNE,20,13.0,13.0,83,-99.99,,,-99.99,,2013-03-25 09:50:00,
2013-03-25 06:12:00,38.0,33.0,29.67,NNE,20,13.0,13.0,83,-99.99,,,-99.99,,2013-03-25 10:12:00,
2013-03-25 06:22:00,38.0,33.0,29.67,NNE,20,13.0,13.0,83,-99.99,,,-99.99,,2013-03-25 10:22:00,
2013-03-25 06:32:00,38.0,33.0,29.67,NNE,20,13.0,13.0,83,-99.99,,,-99.99,,2013-03-25 10:32:00,
2013-03-25 06:42:00,38.0,33.0,29.67,NNE,20,13.0,13.0,83,-99.99,,,-99.99,,2013-03-25 10:42:00,
2013-03-25 06:50:00,38.0,33.0,29.67,NNE,30,9.0,11.0,80,-99.99,,,-99.99,,2013-03-25 10:50:00,
2013-03-25 07:12:00,38.0,33.0,29.67,NNE,30,9.0,11.0,80,-99.99,,,-99.99,,2013-03-25 11:12:00,
2013-03-25 07:22:00,38.0,33.0,29.67,NNE,30,9.0,11.0,80,-99.99,,,-99.99,,2013-03-25 11:22:00,
2013-03-25 07:31:00,38.0,33.0,29.67,NNE,30,9.0,11.0,80,-99.99,,,-99.99,,2013-03-25 11:31:00,
2013-03-25 07:41:00,38.0,33.0,29.67,NNE,30,9.0,11.0,80,-99.99,,,-99.99,,2013-03-25 11:41:00,
2013-03-25 07:50:00,38.0,31.0,29.67,NE,40,9.0,11.0,75,-99.99,,,-99.99,,2013-03-25 11:50:00,
2013-03-25 08:11:00,38.0,31.0,29.67,NE,40,9.0,11.0,75,-99.99,,,-99.99,,2013-03-25 12:11:00,
2013-03-25 08:21:00,38.0,31.0,29.67,NE,40,9.0,11.0,75,-99.99,,,-99.99,,2013-03-25 12:21:00,
2013-03-25 08:31:00,38.0,31.0,29.67,NE,40,9.0,11.0,75,-99.99,,,-99.99,,2013-03-25 12:31:00,
2013-03-25 08:41:00,38.0,31.0,29.67,NE,40,9.0,11.0,75,-99.99,,,-99.99,,2013-03-25 12:41:00,
2013-03-25 08:50:00,39.0,34.0,29.66,NE,50,9.0,11.0,81,-99.99,,,-99.99,,2013-03-25 12:50:00,
2013-03-25 09:11:00,39.0,34.0,29.66,NE,50,9.0,11.0,81,-99.99,,,-99.99,,2013-03-25 13:11:00,
2013-03-25 09:21:00,39.0,34.0,29.66,NE,50,9.0,11.0,81,-99.99,,,-99.99,,2013-03-25 13:21:00,
2013-03-25 09:31:00,39.0,34.0,29.66,NE,50,9.0,11.0,81,-99.99,,,-99.99,,2013-03-25 13:31:00,
2013-03-25 09:41:00,39.0,34.0,29.66,NE,50,9.0,11.0,81,-99.99,,,-99.99,,2013-03-25 13:41:00,
2013-03-25 09:50:00,39.0,35.0,29.63,ENE,60,11.0,13.0,83,-99.99,,,-99.99,,2013-03-25 13:50:00,
2013-03-25 10:21:00,39.0,35.0,29.63,ENE,60,11.0,13.0,83,-99.99,,,-99.99,,2013-03-25 14:21:00,
2013-03-25 10:31:00,39.0,35.0,29.63,ENE,60,11.0,13.0,83,-99.99,,,-99.99,,2013-03-25 14:31:00,
2013-03-25 10:41:00,39.0,35.0,29.63,ENE,60,11.0,13.0,83,-99.99,,,-99.99,,2013-03-25 14:41:00,
2013-03-25 10:50:00,40.0,35.0,29.61,ENE,60,16.0,18.0,82,-99.99,,,-99.99,,2013-03-25 14:50:00,
2013-03-25 11:11:00,40.0,35.0,29.61,ENE,60,16.0,18.0,82,-99.99,,,-99.99,,2013-03-25 15:11:00,
2013-03-25 11:21:00,40.0,35.0,29.61,ENE,60,16.0,18.0,82,-99.99,,,-99.99,,2013-03-25 15:21:00,
2013-03-25 11:32:00,40.0,35.0,29.61,ENE,60,16.0,18.0,82,-99.99,,,-99.99,,2013-03-25 15:32:00,
2013-03-25 11:42:00,40.0,35.0,29.61,ENE,60,16.0,18.0,82,-99.99,,,-99.99,,2013-03-25 15:42:00,
2013-03-25 11:50:00,40.0,32.0,29.61,ENE,70,20.0,25.0,72,-99.99,,,-99.99,,2013-03-25 15:50:00,
2013-03-25 12:12:00,40.0,32.0,29.61,ENE,70,20.0,25.0,72,-99.99,,,-99.99,,2013-03-25 16:12:00,
2013-03-25 12:22:00,40.0,32.0,29.61,ENE,70,20.0,25.0,72,-99.99,,,-99.99,,2013-03-25 16:22:00,
2013-03-25 12:32:00,40.0,32.0,29.61,ENE,70,20.0,25.0,72,-99.99,,,-99.99,,2013-03-25 16:32:00,
2013-03-25 12:42:00,40.0,32.0,29.61,ENE,70,20.0,25.0,72,-99.99,,,-99.99,,2013-03-25 16:42:00,
2013-03-25 12:50:00,40.0,31.0,29.57,ENE,70,22.0,27.0,70,-99.99,,,-99.99,,2013-03-25 16:50:00,
2013-03-25 13:11:00,40.0,31.0,29.57,ENE,70,22.0,27.0,70,-99.99,,,-99.99,,2013-03-25 17:11:00,
2013-03-25 13:22:00,40.0,31.0,29.57,ENE,70,22.0,27.0,70,-99.99,,,-99.99,,2013-03-25 17:22:00,
2013-03-25 13:31:00,40.0,31.0,29.57,ENE,70,22.0,27.0,70,-99.99,,,-99.99,,2013-03-25 17:31:00,
2013-03-25 13:42:00,40.0,31.0,29.57,ENE,70,22.0,27.0,70,-99.99,,,-99.99,,2013-03-25 17:42:00,
2013-03-25 13:50:00,39.0,33.0,29.55,ENE,70,20.0,25.0,76,-99.99,,,-99.99,,2013-03-25 17:50:00,
2013-03-25 14:11:00,39.0,33.0,29.55,ENE,70,20.0,25.0,76,-99.99,,,-99.99,,2013-03-25 18:11:00,
2013-03-25 14:22:00,39.0,33.0,29.55,ENE,70,20.0,25.0,76,-99.99,,,-99.99,,2013-03-25 18:22:00,
2013-03-25 14:31:00,39.0,33.0,29.55,ENE,70,20.0,25.0,76,-99.99,,,-99.99,,2013-03-25 18:31:00,
2013-03-25 14:41:00,39.0,33.0,29.55,ENE,70,20.0,25.0,76,-99.99,,,-99.99,,2013-03-25 18:41:00,
2013-03-25 15:50:00,39.0,33.0,29.44,ENE,70,27.0,34.0,76,-99.99,,,-99.99,,2013-03-25 19:50:00,
2013-03-25 16:11:00,39.0,33.0,29.44,ENE,70,27.0,34.0,76,-99.99,,,-99.99,,2013-03-25 20:11:00,
2013-03-25 16:21:00,39.0,33.0,29.44,ENE,70,27.0,34.0,76,-99.99,,,-99.99,,2013-03-25 20:21:00,
2013-03-25 16:31:00,39.0,33.0,29.44,ENE,70,27.0,34.0,76,-99.99,,,-99.99,,2013-03-25 20:31:00,
2013-03-25 16:41:00,39.0,33.0,29.44,ENE,70,27.0,34.0,76,-99.99,,,-99.99,,2013-03-25 20:41:00,
2013-03-25 16:50:00,39.0,31.0,29.42,ENE,60,29.0,34.0,70,-99.99,,,-99.99,,2013-03-25 20:50:00,
2013-03-25 17:11:00,39.0,31.0,29.42,ENE,60,29.0,34.0,70,-99.99,,,-99.99,,2013-03-25 21:11:00,
2013-03-25 17:21:00,39.0,31.0,29.42,ENE,60,29.0,34.0,70,-99.99,,,-99.99,,2013-03-25 21:21:00,
2013-03-25 17:32:00,39.0,31.0,29.42,ENE,60,29.0,34.0,70,-99.99,,,-99.99,,2013-03-25 21:32:00,
2013-03-25 17:42:00,39.0,31.0,29.42,ENE,60,29.0,34.0,70,-99.99,,,-99.99,,2013-03-25 21:42:00,
2013-03-25 17:50:00,40.0,31.0,29.43,ENE,60,27.0,31.0,71,-99.99,,,-99.99,,2013-03-25 21:50:00,
2013-03-25 18:12:00,40.0,31.0,29.43,ENE,60,27.0,31.0,71,-99.99,,,-99.99,,2013-03-25 22:12:00,
2013-03-25 18:22:00,40.0,31.0,29.43,ENE,60,27.0,31.0,71,-99.99,,,-99.99,,2013-03-25 22:22:00,
2013-03-25 18:32:00,40.0,31.0,29.43,ENE,60,27.0,31.0,71,-99.99,,,-99.99,,2013-03-25 22:32:00,
2013-03-25 18:42:00,40.0,31.0,29.43,ENE,60,27.0,31.0,71,-99.99,,,-99.99,,2013-03-25 22:42:00,
2013-03-25 18:50:00,40.0,32.0,29.43,ENE,60,25.0,31.0,74,-99.99,,,-99.99,,2013-03-25 22:50:00,
2013-03-25 19:31:00,40.0,32.0,29.43,ENE,60,25.0,31.0,74,-99.99,,,-99.99,,2013-03-25 23:31:00,
2013-03-25 19:42:00,40.0,32.0,29.43,ENE,60,25.0,31.0,74,-99.99,,,-99.99,,2013-03-25 23:42:00,
2013-03-25 19:50:00,39.0,32.0,29.43,ENE,60,27.0,34.0,74,-99.99,,,-99.99,,2013-03-25 23:50:00,
2013-03-25 20:11:00,39.0,32.0,29.43,ENE,60,27.0,34.0,74,-99.99,,,-99.99,,2013-03-26 00:11:00,
2013-03-25 20:21:00,39.0,32.0,29.43,ENE,60,27.0,34.0,74,-99.99,,,-99.99,,2013-03-26 00:21:00,
2013-03-25 20:31:00,39.0,32.0,29.43,ENE,60,27.0,34.0,74,-99.99,,,-99.99,,2013-03-26 00:31:00,
2013-03-25 20:41:00,39.0,32.0,29.43,ENE,60,27.0,34.0,74,-99.99,,,-99.99,,2013-03-26 00:41:00,
2013-03-25 20:50:00,39.0,31.0,29.43,ENE,60,25.0,29.0,73,-99.99,,,-99.99,,2013-03-26 00:50:00,
2013-03-25 21:21:00,39.0,31.0,29.43,ENE,60,25.0,29.0,73,-99.99,,,-99.99,,2013-03-26 01:21:00,
2013-03-25 21:31:00,39.0,31.0,29.43,ENE,60,25.0,29.0,73,-99.99,,,-99.99,,2013-03-26 01:31:00,
2013-03-25 21:41:00,39.0,31.0,29.43,ENE,60,25.0,29.0,73,-99.99,,,-99.99,,2013-03-26 01:41:00,
2013-03-25 21:50:00,37.0,35.0,29.41,NE,50,27.0,34.0,89,-99.99,,,-99.99,,2013-03-26 01:50:00,
2013-03-25 22:11:00,37.0,35.0,29.41,NE,50,27.0,34.0,89,-99.99,,,-99.99,,2013-03-26 02:11:00,
2013-03-25 22:21:00,37.0,35.0,29.41,NE,50,27.0,34.0,89,-99.99,,,-99.99,,2013-03-26 02:21:00,
2013-03-25 22:31:00,37.0,35.0,29.41,NE,50,27.0,34.0,89,-99.99,,,-99.99,,2013-03-26 02:31:00,
2013-03-25 22:41:00,37.0,35.0,29.41,NE,50,27.0,34.0,89,-99.99,,,-99.99,,2013-03-26 02:41:00,
2013-03-25 22:50:00,40.0,32.0,29.39,NE,50,29.0,36.0,73,-99.99,,,-99.99,,2013-03-26 02:50:00,
2013-03-25 23:11:00,40.0,32.0,29.39,NE,50,29.0,36.0,73,-99.99,,,-99.99,,2013-03-26 03:11:00,
2013-03-25 23:21:00,40.0,32.0,29.39,NE,50,29.0,36.0,73,-99.99,,,-99.99,,2013-03-26 03:21:00,
2013-03-25 23:33:00,40.0,32.0,29.39,NE,50,29.0,36.0,73,-99.99,,,-99.99,,2013-03-26 03:33:00,
2013-03-25 23:42:00,40.0,32.0,29.39,NE,50,29.0,36.0,73,-99.99,,,-99.99,,2013-03-26 03:42:00,
2013-03-25 23:50:00,39.0,33.0,29.39,NE,40,27.0,36.0,77,-99.99,,,-99.99,,2013-03-26 03:50:00,